createdAt,value
2022-10-26T00:01:09.186Z,24.85
2022-10-26T00:03:36.378Z,25.85
2022-10-26T00:06:11.583Z,25.67
2022-10-26T00:08:38.508Z,26.50
2022-10-26T00:11:05.510Z,24.50
2022-10-26T00:13:32.619Z,33.75
2022-10-26T00:18:26.659Z,27.58
2022-10-26T00:20:53.144Z,26.65
2022-10-26T00:23:19.635Z,22.98
2022-10-26T00:25:54.369Z,38.55
2022-10-26T00:28:20.818Z,21.00
2022-10-26T00:30:47.590Z,28.35
2022-10-26T00:33:14.512Z,26.13
2022-10-26T00:35:45.972Z,26.58
2022-10-26T00:38:12.962Z,31.05
2022-10-26T00:40:39.427Z,29.65
2022-10-26T00:43:13.404Z,28.50
2022-10-26T00:45:39.968Z,27.58
2022-10-26T00:48:10.094Z,23.20
2022-10-26T00:50:39.745Z,30.52
2022-10-26T00:53:07.074Z,34.90
2022-10-26T00:55:40.636Z,28.17
2022-10-26T01:00:33.838Z,21.75
2022-10-26T01:03:06.504Z,19.70
2022-10-26T01:05:34.375Z,27.93
2022-10-26T01:08:01.935Z,23.25
2022-10-26T01:10:28.940Z,27.63
2022-10-26T01:12:56.770Z,22.60
2022-10-26T01:15:28.418Z,28.00
2022-10-26T01:17:57.891Z,30.50
2022-10-26T01:20:59.724Z,28.45
2022-10-26T01:23:34.055Z,22.45
2022-10-26T01:26:15.345Z,22.23
2022-10-26T01:29:06.608Z,26.77
2022-10-26T01:31:45.887Z,21.67
2022-10-26T01:34:15.328Z,26.35
2022-10-26T01:36:45.905Z,25.77
2022-10-26T01:39:21.166Z,24.45
2022-10-26T01:41:50.049Z,28.42
2022-10-26T01:44:28.625Z,24.92
2022-10-26T01:46:55.937Z,29.52
2022-10-26T01:49:25.395Z,25.83
2022-10-26T01:51:51.864Z,38.22
2022-10-26T01:54:18.343Z,27.30
2022-10-26T01:56:47.870Z,31.08
2022-10-26T01:59:30.419Z,28.65
2022-10-26T02:02:19.556Z,23.35
2022-10-26T02:05:13.706Z,26.17
2022-10-26T02:10:46.237Z,25.55
2022-10-26T02:13:32.882Z,34.47
2022-10-26T02:16:24.616Z,38.30
2022-10-26T02:19:17.084Z,30.65
2022-10-26T02:21:53.368Z,30.00
2022-10-26T02:24:20.427Z,30.63
2022-10-26T02:26:48.233Z,37.17
2022-10-26T02:29:17.707Z,30.67
2022-10-26T02:31:45.468Z,30.08
2022-10-26T02:34:13.616Z,29.77
2022-10-26T02:36:42.940Z,31.33
2022-10-26T02:39:10.233Z,29.95
2022-10-26T02:41:36.886Z,30.95
2022-10-26T02:44:25.060Z,32.65
2022-10-26T02:46:51.871Z,31.13
2022-10-26T02:49:18.571Z,34.25
2022-10-26T02:51:45.992Z,33.47
2022-10-26T02:54:26.842Z,31.73
2022-10-26T02:57:00.262Z,35.42
2022-10-26T02:59:30.918Z,40.30
2022-10-26T03:01:57.746Z,34.53
2022-10-26T03:04:31.436Z,31.08
2022-10-26T03:06:58.265Z,32.10
2022-10-26T03:09:25.683Z,39.92
2022-10-26T03:11:52.520Z,34.28
2022-10-26T03:14:19.055Z,33.30
2022-10-26T03:16:45.815Z,34.83
2022-10-26T03:19:12.466Z,34.95
2022-10-26T03:21:38.923Z,35.47
2022-10-26T03:24:05.647Z,34.50
2022-10-26T03:26:32.127Z,37.53
2022-10-26T03:28:58.667Z,32.15
2022-10-26T03:31:25.160Z,39.08
2022-10-26T03:33:51.746Z,36.53
2022-10-26T03:36:18.198Z,30.30
2022-10-26T03:38:44.800Z,33.10
2022-10-26T03:41:11.317Z,32.90
2022-10-26T03:43:37.836Z,37.25
2022-10-26T03:46:04.355Z,30.77
2022-10-26T03:48:30.850Z,32.45
2022-10-26T03:50:58.319Z,32.40
2022-10-26T03:53:25.083Z,35.40
2022-10-26T03:55:51.595Z,35.78
2022-10-26T03:58:18.134Z,33.08
2022-10-26T04:00:44.846Z,32.05
2022-10-26T04:03:11.382Z,32.50
2022-10-26T04:05:37.869Z,35.35
2022-10-26T04:08:04.389Z,30.33
2022-10-26T04:10:34.740Z,29.13
2022-10-26T04:13:01.278Z,29.98
2022-10-26T04:15:28.408Z,35.95
2022-10-26T04:17:59.831Z,36.17
2022-10-26T04:20:27.036Z,29.65
2022-10-26T04:23:00.302Z,45.35
2022-10-26T04:25:30.118Z,32.38
2022-10-26T04:28:00.389Z,34.88
2022-10-26T04:30:26.855Z,33.90
2022-10-26T04:32:53.323Z,31.13
2022-10-26T04:35:19.833Z,43.63
2022-10-26T04:37:46.298Z,38.72
2022-10-26T04:40:12.831Z,44.80
2022-10-26T04:42:46.620Z,32.80
2022-10-26T04:45:14.740Z,36.95
2022-10-26T04:47:41.697Z,29.08
2022-10-26T04:50:09.229Z,39.28
2022-10-26T04:52:36.288Z,90.18
2022-10-26T04:55:06.160Z,27.05
2022-10-26T04:57:33.552Z,58.00
2022-10-26T05:00:00.983Z,38.53
2022-10-26T05:02:28.641Z,26.52
2022-10-26T05:04:55.279Z,38.40
2022-10-26T05:07:21.786Z,31.55
2022-10-26T05:09:48.311Z,52.75
2022-10-26T05:12:14.828Z,51.80
2022-10-26T05:14:41.333Z,21.08
2022-10-26T05:17:07.923Z,21.48
2022-10-26T05:19:34.499Z,61.40
2022-10-26T05:22:01.053Z,21.23
2022-10-26T05:24:27.507Z,109.90
2022-10-26T05:26:54.138Z,30.00
2022-10-26T05:29:20.595Z,20.90
2022-10-26T05:31:47.193Z,47.83
2022-10-26T05:34:13.669Z,35.38
2022-10-26T05:36:40.303Z,31.05
2022-10-26T05:39:06.896Z,31.98
2022-10-26T05:41:33.469Z,37.55
2022-10-26T05:44:00.037Z,21.48
2022-10-26T05:46:26.623Z,48.88
2022-10-26T05:48:53.171Z,27.35
2022-10-26T05:51:19.652Z,22.30
2022-10-26T05:53:46.190Z,52.45
2022-10-26T05:56:34.000Z,51.90
2022-10-26T05:59:04.901Z,123.63
2022-10-26T06:02:00.605Z,49.58
2022-10-26T06:04:38.770Z,61.85
2022-10-26T06:07:13.549Z,55.58
2022-10-26T06:09:41.268Z,58.20
2022-10-26T06:12:08.790Z,36.08
2022-10-26T06:14:35.981Z,14.38
2022-10-26T06:17:22.376Z,60.35
2022-10-26T06:20:26.141Z,29.23
2022-10-26T06:23:18.874Z,81.15
2022-10-26T06:26:09.557Z,70.75
2022-10-26T06:28:55.936Z,88.57
2022-10-26T06:31:22.410Z,30.88
2022-10-26T06:33:48.860Z,26.35
2022-10-26T06:36:22.926Z,34.97
2022-10-26T06:38:53.042Z,18.23
2022-10-26T06:41:20.067Z,37.65
2022-10-26T06:43:46.751Z,100.32
2022-10-26T06:46:41.834Z,140.68
2022-10-26T06:49:27.989Z,82.80
2022-10-26T06:52:03.800Z,134.73
2022-10-26T06:54:47.140Z,67.40
2022-10-26T06:57:15.899Z,112.40
2022-10-26T06:59:50.635Z,125.57
2022-10-26T07:02:17.584Z,72.80
2022-10-26T07:04:44.497Z,38.28
2022-10-26T07:07:17.440Z,47.78
2022-10-26T07:09:43.906Z,85.32
2022-10-26T07:12:10.427Z,140.90
2022-10-26T07:14:36.875Z,56.60
2022-10-26T07:17:03.863Z,141.63
2022-10-26T07:19:30.314Z,14.15
2022-10-26T07:21:57.495Z,118.47
2022-10-26T07:24:24.069Z,85.32
2022-10-26T07:26:50.587Z,68.13
2022-10-26T07:29:18.088Z,105.65
2022-10-26T07:31:44.773Z,82.47
2022-10-26T07:34:11.304Z,82.10
2022-10-26T07:36:37.847Z,57.40
2022-10-26T07:39:04.399Z,57.85
2022-10-26T07:41:30.892Z,104.57
2022-10-26T07:43:57.503Z,47.28
2022-10-26T07:46:24.071Z,159.95
2022-10-26T07:48:50.691Z,70.28
2022-10-26T07:51:17.187Z,62.58
2022-10-26T07:53:43.677Z,47.53
2022-10-26T07:56:10.704Z,78.18
2022-10-26T07:58:37.297Z,32.95
2022-10-26T08:01:13.239Z,54.75
2022-10-26T08:03:40.311Z,68.90
2022-10-26T08:06:07.578Z,34.50
2022-10-26T08:08:34.077Z,53.05
2022-10-26T08:11:00.860Z,64.13
2022-10-26T08:13:27.526Z,65.68
2022-10-26T08:16:01.729Z,74.22
2022-10-26T08:18:28.354Z,49.50
2022-10-26T08:21:01.740Z,70.55
2022-10-26T08:23:36.691Z,42.70
2022-10-26T08:26:03.923Z,36.20
2022-10-26T08:28:30.819Z,34.35
2022-10-26T08:30:57.273Z,36.40
2022-10-26T08:33:24.702Z,40.78
2022-10-26T08:36:02.339Z,39.42
2022-10-26T08:38:29.244Z,38.50
2022-10-26T08:40:57.543Z,28.52
2022-10-26T08:43:27.955Z,33.38
2022-10-26T08:45:57.158Z,36.53
2022-10-26T08:48:35.803Z,29.38
2022-10-26T08:51:24.522Z,29.30
2022-10-26T08:54:00.017Z,30.08
2022-10-26T08:56:28.370Z,29.75
2022-10-26T08:58:57.459Z,28.48
2022-10-26T09:01:24.027Z,29.83
2022-10-26T09:03:50.884Z,30.00
2022-10-26T09:06:41.519Z,27.40
2022-10-26T09:09:16.868Z,29.45
2022-10-26T09:12:07.487Z,27.42
2022-10-26T09:14:43.560Z,26.23
2022-10-26T09:17:34.806Z,27.50
2022-10-26T09:20:18.259Z,26.27
2022-10-26T09:23:01.009Z,25.17
2022-10-26T09:25:35.479Z,27.67
2022-10-26T09:28:02.264Z,24.40
2022-10-26T09:30:30.322Z,26.60
2022-10-26T09:33:02.593Z,26.95
2022-10-26T09:36:00.397Z,26.60
2022-10-26T09:38:32.305Z,26.60
2022-10-26T09:41:06.602Z,28.02
2022-10-26T09:43:41.731Z,26.73
2022-10-26T09:46:13.450Z,29.10
2022-10-26T09:48:45.552Z,21.40
2022-10-26T09:51:12.217Z,25.48
2022-10-26T09:53:38.666Z,21.10
2022-10-26T09:56:10.544Z,23.88
2022-10-26T09:58:44.959Z,26.98
2022-10-26T10:01:22.072Z,28.33
2022-10-26T10:03:48.603Z,22.17
2022-10-26T10:06:18.372Z,20.45
2022-10-26T10:09:05.119Z,20.75
2022-10-26T10:11:54.887Z,20.80
2022-10-26T10:14:26.614Z,22.40
2022-10-26T10:16:55.700Z,23.08
2022-10-26T10:19:25.354Z,26.30
2022-10-26T10:21:54.525Z,24.10
2022-10-26T10:24:33.675Z,26.92
2022-10-26T10:27:03.010Z,26.45
2022-10-26T10:29:34.918Z,22.67
2022-10-26T10:32:03.057Z,21.92
2022-10-26T10:34:33.619Z,17.67
2022-10-26T10:37:00.993Z,18.45
2022-10-26T10:39:34.546Z,16.98
2022-10-26T10:44:31.726Z,15.65
2022-10-26T10:47:06.279Z,15.27
2022-10-26T10:49:33.418Z,17.20
2022-10-26T10:52:00.296Z,16.65
2022-10-26T10:54:33.364Z,16.92
2022-10-26T10:57:29.442Z,17.13
2022-10-26T11:00:05.385Z,15.07
2022-10-26T11:02:47.010Z,14.65
2022-10-26T11:05:32.039Z,14.25
2022-10-26T11:08:03.821Z,30.83
2022-10-26T11:10:35.271Z,20.75
2022-10-26T11:13:05.002Z,13.75
2022-10-26T11:15:34.441Z,16.50
2022-10-26T11:18:09.576Z,21.55
2022-10-26T11:20:40.866Z,11.00
2022-10-26T11:23:12.843Z,11.35
2022-10-26T11:25:56.946Z,19.17
2022-10-26T11:28:37.492Z,9.75
2022-10-26T11:31:08.305Z,10.05
2022-10-26T11:33:41.532Z,9.48
2022-10-26T11:36:21.880Z,9.70
2022-10-26T11:39:20.391Z,9.63
2022-10-26T11:42:21.330Z,8.63
2022-10-26T11:45:22.910Z,9.18
2022-10-26T11:48:16.100Z,6.85
2022-10-26T11:50:49.057Z,13.00
2022-10-26T11:53:18.059Z,15.20
2022-10-26T11:55:48.878Z,9.60
2022-10-26T11:58:17.255Z,8.20
2022-10-26T12:01:07.538Z,10.85
2022-10-26T12:03:38.099Z,10.35
2022-10-26T12:06:04.731Z,13.43
2022-10-26T12:08:36.314Z,13.23
2022-10-26T12:11:09.989Z,9.70
2022-10-26T12:13:42.295Z,12.30
2022-10-26T12:16:40.144Z,10.30
2022-10-26T12:19:14.727Z,8.65
2022-10-26T12:21:43.867Z,6.55
2022-10-26T12:24:22.681Z,5.38
2022-10-26T12:26:50.708Z,5.60
2022-10-26T12:29:29.463Z,6.75
2022-10-26T12:31:55.951Z,8.32
2022-10-26T12:34:29.404Z,10.43
2022-10-26T12:36:55.806Z,11.38
2022-10-26T12:39:36.278Z,10.40
2022-10-26T12:42:05.574Z,10.90
2022-10-26T12:44:37.828Z,7.97
2022-10-26T12:47:05.300Z,7.28
2022-10-26T12:50:06.210Z,7.68
2022-10-26T12:53:11.057Z,13.55
2022-10-26T12:55:46.623Z,8.40
2022-10-26T12:58:32.508Z,8.93
2022-10-26T13:00:58.957Z,6.25
2022-10-26T13:04:09.103Z,3.88
2022-10-26T13:06:54.475Z,6.60
2022-10-26T13:09:23.424Z,10.02
2022-10-26T13:11:53.030Z,9.18
2022-10-26T13:14:37.263Z,10.43
2022-10-26T13:17:05.514Z,6.35
2022-10-26T13:19:45.467Z,5.20
2022-10-26T13:22:16.334Z,7.63
2022-10-26T13:24:52.285Z,12.88
2022-10-26T13:27:18.982Z,8.18
2022-10-26T13:30:03.475Z,7.15
2022-10-26T13:32:33.763Z,9.60
2022-10-26T13:35:01.854Z,6.88
2022-10-26T13:37:31.638Z,6.72
2022-10-26T13:39:59.677Z,6.28
2022-10-26T13:43:04.736Z,7.07
2022-10-26T13:45:34.464Z,7.22
2022-10-26T13:48:10.241Z,4.60
2022-10-26T13:51:01.860Z,5.53
2022-10-26T13:53:40.437Z,5.25
2022-10-26T13:56:13.701Z,5.10
2022-10-26T13:58:48.965Z,11.65
2022-10-26T14:01:18.078Z,5.80
2022-10-26T14:03:44.628Z,11.32
2022-10-26T14:06:24.041Z,7.50
2022-10-26T14:08:51.823Z,5.30
2022-10-26T14:11:21.164Z,9.52
2022-10-26T14:13:49.243Z,10.88
2022-10-26T14:16:19.192Z,9.00
2022-10-26T14:18:46.408Z,6.78
2022-10-26T14:21:16.136Z,11.60
2022-10-26T14:23:49.044Z,11.77
2022-10-26T14:26:26.586Z,9.30
2022-10-26T14:28:56.378Z,6.43
2022-10-26T14:31:25.445Z,7.97
2022-10-26T14:33:52.678Z,7.25
2022-10-26T14:36:21.720Z,6.28
2022-10-26T14:38:50.126Z,5.85
2022-10-26T14:41:17.578Z,9.23
2022-10-26T14:43:44.686Z,7.30
2022-10-26T14:46:18.604Z,5.15
2022-10-26T14:48:53.917Z,6.40
2022-10-26T14:51:22.367Z,7.93
2022-10-26T14:53:51.032Z,6.68
2022-10-26T14:56:35.650Z,6.75
2022-10-26T14:59:22.649Z,6.35
2022-10-26T15:01:54.008Z,6.22
2022-10-26T15:04:32.463Z,8.88
2022-10-26T15:07:18.200Z,9.18
2022-10-26T15:09:51.927Z,7.00
2022-10-26T15:12:33.498Z,7.28
2022-10-26T15:17:55.240Z,6.38
2022-10-26T15:20:23.338Z,7.03
2022-10-26T15:23:01.678Z,8.07
2022-10-26T15:25:30.155Z,9.73
2022-10-26T15:28:09.251Z,7.20
2022-10-26T15:30:35.751Z,6.25
2022-10-26T15:33:18.803Z,7.80
2022-10-26T15:35:45.240Z,6.00
2022-10-26T15:38:11.866Z,7.07
2022-10-26T15:40:42.627Z,5.65
2022-10-26T15:43:10.475Z,7.80
2022-10-26T15:45:47.887Z,8.65
2022-10-26T15:48:17.723Z,7.72
2022-10-26T15:50:44.201Z,7.72
2022-10-26T15:53:18.233Z,9.18
2022-10-26T15:55:44.799Z,9.00
2022-10-26T15:58:11.605Z,8.35
2022-10-26T16:00:38.078Z,6.78
2022-10-26T16:03:04.545Z,6.47
2022-10-26T16:07:58.642Z,8.15
2022-10-26T16:10:25.668Z,10.57
2022-10-26T16:12:52.607Z,6.80
2022-10-26T16:15:24.396Z,6.95
2022-10-26T16:17:51.237Z,7.78
2022-10-26T16:20:23.182Z,7.10
2022-10-26T16:22:51.256Z,7.70
2022-10-26T16:25:20.840Z,7.35
2022-10-26T16:27:47.832Z,7.53
2022-10-26T16:30:14.368Z,6.80
2022-10-26T16:32:41.232Z,6.80
2022-10-26T16:35:08.443Z,6.18
2022-10-26T16:37:34.930Z,8.07
2022-10-26T16:40:01.374Z,7.50
2022-10-26T16:42:28.461Z,6.78
2022-10-26T16:44:57.594Z,12.02
2022-10-26T16:47:27.105Z,7.70
2022-10-26T16:49:53.843Z,8.02
2022-10-26T16:52:20.309Z,6.82
2022-10-26T16:54:46.807Z,10.10
2022-10-26T16:57:13.323Z,9.63
2022-10-26T16:59:39.832Z,7.60
2022-10-26T17:02:06.619Z,8.25
2022-10-26T17:04:33.135Z,8.10
2022-10-26T17:07:02.287Z,6.97
2022-10-26T17:09:29.774Z,8.93
2022-10-26T17:12:00.937Z,8.57
2022-10-26T17:14:31.909Z,8.23
2022-10-26T17:16:58.888Z,8.45
2022-10-26T17:19:25.351Z,7.63
2022-10-26T17:21:53.876Z,8.90
2022-10-26T17:24:20.731Z,7.25
2022-10-26T17:26:47.485Z,7.75
2022-10-26T17:29:14.156Z,8.40
2022-10-26T17:31:40.726Z,7.55
2022-10-26T17:34:07.271Z,8.35
2022-10-26T17:36:33.796Z,9.15
2022-10-26T17:39:00.898Z,10.07
2022-10-26T17:41:28.072Z,8.60
2022-10-26T17:43:54.624Z,10.55
2022-10-26T17:46:25.642Z,12.15
2022-10-26T17:48:59.452Z,8.20
2022-10-26T17:51:29.655Z,10.15
2022-10-26T17:53:56.924Z,7.18
2022-10-26T17:56:26.767Z,6.80
2022-10-26T17:58:58.468Z,8.18
2022-10-26T18:01:25.288Z,8.45
2022-10-26T18:03:52.063Z,8.30
2022-10-26T18:06:18.861Z,7.63
2022-10-26T18:08:45.647Z,8.73
2022-10-26T18:11:15.002Z,11.50
2022-10-26T18:13:41.547Z,10.25
2022-10-26T18:16:11.000Z,9.48
2022-10-26T18:18:38.530Z,8.95
2022-10-26T18:21:09.842Z,10.85
2022-10-26T18:23:36.814Z,9.13
2022-10-26T18:26:11.125Z,10.77
2022-10-26T18:28:39.863Z,8.32
2022-10-26T18:31:07.880Z,9.52
2022-10-26T18:33:36.598Z,9.18
2022-10-26T18:36:04.298Z,10.25
2022-10-26T18:38:31.367Z,9.38
2022-10-26T18:40:58.031Z,9.95
2022-10-26T18:43:24.696Z,11.15
2022-10-26T18:45:51.192Z,9.40
2022-10-26T18:48:18.673Z,8.70
2022-10-26T18:50:45.695Z,11.20
2022-10-26T18:53:16.369Z,9.15
2022-10-26T18:55:43.021Z,10.95
2022-10-26T18:58:11.349Z,10.73
2022-10-26T19:00:38.841Z,12.40
2022-10-26T19:03:07.979Z,12.50
2022-10-26T19:05:35.081Z,13.65
2022-10-26T19:08:01.546Z,11.98
2022-10-26T19:10:28.076Z,9.90
2022-10-26T19:12:54.571Z,10.93
2022-10-26T19:15:21.590Z,12.25
2022-10-26T19:17:48.083Z,9.07
2022-10-26T19:20:14.715Z,10.13
2022-10-26T19:22:41.260Z,14.30
2022-10-26T19:25:08.519Z,11.75
2022-10-26T19:27:35.042Z,10.77
2022-10-26T19:30:01.578Z,11.38
2022-10-26T19:32:28.787Z,14.18
2022-10-26T19:34:55.376Z,10.13
2022-10-26T19:37:23.719Z,11.20
2022-10-26T19:39:52.517Z,14.10
2022-10-26T19:42:19.019Z,10.98
2022-10-26T19:44:45.470Z,12.32
2022-10-26T19:47:11.922Z,14.18
2022-10-26T19:49:38.390Z,12.93
2022-10-26T19:52:04.992Z,15.32
2022-10-26T19:54:31.662Z,13.40
2022-10-26T19:56:58.190Z,11.07
2022-10-26T19:59:24.651Z,12.38
2022-10-26T20:01:51.197Z,13.35
2022-10-26T20:04:17.780Z,11.98
2022-10-26T20:06:44.331Z,9.63
2022-10-26T20:09:10.966Z,10.70
2022-10-26T20:11:39.642Z,12.32
2022-10-26T20:14:07.505Z,13.45
2022-10-26T20:16:33.978Z,12.60
2022-10-26T20:19:01.103Z,9.63
2022-10-26T20:21:27.579Z,14.25
2022-10-26T20:23:54.038Z,12.50
2022-10-26T20:26:21.387Z,11.77
2022-10-26T20:28:51.088Z,12.68
2022-10-26T20:31:17.782Z,10.43
2022-10-26T20:33:44.359Z,11.18
2022-10-26T20:36:10.830Z,13.93
2022-10-26T20:38:39.052Z,12.88
2022-10-26T20:41:07.975Z,10.52
2022-10-26T20:43:46.713Z,8.98
2022-10-26T20:46:23.388Z,11.40
2022-10-26T20:48:50.968Z,10.35
2022-10-26T20:51:22.280Z,10.48
2022-10-26T20:54:01.478Z,10.85
2022-10-26T20:56:28.244Z,15.75
2022-10-26T20:58:59.764Z,14.40
2022-10-26T21:01:34.379Z,11.70
2022-10-26T21:04:02.518Z,13.88
2022-10-26T21:06:29.854Z,13.73
2022-10-26T21:08:57.230Z,13.13
2022-10-26T21:11:24.951Z,12.25
2022-10-26T21:13:53.066Z,10.80
2022-10-26T21:16:19.534Z,12.25
2022-10-26T21:18:46.070Z,13.45
2022-10-26T21:21:12.594Z,13.73
2022-10-26T21:23:40.543Z,10.63
2022-10-26T21:26:07.922Z,16.23
2022-10-26T21:28:42.159Z,10.50
2022-10-26T21:31:12.717Z,12.25
2022-10-26T21:33:39.264Z,11.35
2022-10-26T21:36:08.292Z,10.57
2022-10-26T21:38:35.187Z,11.98
2022-10-26T21:41:03.883Z,13.43
2022-10-26T21:43:30.657Z,13.18
2022-10-26T21:46:03.586Z,15.85
2022-10-26T21:48:31.534Z,12.45
2022-10-26T21:50:58.006Z,11.20
2022-10-26T21:53:26.526Z,13.50
2022-10-26T21:56:00.709Z,13.95
2022-10-26T21:58:27.662Z,13.45
2022-10-26T22:00:54.178Z,13.75
2022-10-26T22:03:20.698Z,17.33
2022-10-26T22:05:53.403Z,15.25
2022-10-26T22:08:20.016Z,13.13
2022-10-26T22:10:46.533Z,14.00
2022-10-26T22:13:13.004Z,11.95
2022-10-26T22:15:39.541Z,13.32
2022-10-26T22:18:06.109Z,14.02
2022-10-26T22:20:32.655Z,12.07
2022-10-26T22:22:59.165Z,15.88
2022-10-26T22:25:25.652Z,14.95
2022-10-26T22:27:52.310Z,14.23
2022-10-26T22:30:19.037Z,14.82
2022-10-26T22:32:45.507Z,18.00
2022-10-26T22:35:28.605Z,15.13
2022-10-26T22:37:56.192Z,16.83
2022-10-26T22:40:22.637Z,14.35
2022-10-26T22:42:51.572Z,13.93
2022-10-26T22:45:18.337Z,14.32
2022-10-26T22:47:44.862Z,17.05
2022-10-26T22:50:11.322Z,17.00
2022-10-26T22:52:37.787Z,15.43
2022-10-26T22:55:04.327Z,15.80
2022-10-26T22:57:30.838Z,18.00
2022-10-26T22:59:57.296Z,19.42
2022-10-26T23:02:23.810Z,14.82
2022-10-26T23:04:50.314Z,17.15
2022-10-26T23:07:16.797Z,15.38
2022-10-26T23:09:43.264Z,15.30
2022-10-26T23:12:09.751Z,14.07
2022-10-26T23:14:36.333Z,15.70
2022-10-26T23:17:03.780Z,15.50
2022-10-26T23:19:30.232Z,16.10
2022-10-26T23:21:56.684Z,18.23
2022-10-26T23:24:23.171Z,17.85
2022-10-26T23:26:49.679Z,16.60
2022-10-26T23:29:16.337Z,16.75
2022-10-26T23:31:42.805Z,16.58
2022-10-26T23:34:09.455Z,16.17
2022-10-26T23:36:35.919Z,15.27
2022-10-26T23:39:02.831Z,18.00
2022-10-26T23:41:29.360Z,14.88
2022-10-26T23:43:55.869Z,13.55
2022-10-26T23:46:22.410Z,14.73
2022-10-26T23:48:48.906Z,19.67
2022-10-26T23:51:15.395Z,13.85
2022-10-26T23:53:41.843Z,17.85
2022-10-26T23:56:08.296Z,15.25
2022-10-26T23:58:34.783Z,10.30
